Time;durP1;ratioP1;P1;durP2;ratioP2;P2;SDS_P1;SDS_P2;PMS_P1;PMS_P2;Temp;Humidity;BMP_temperature;BMP_pressure;BME280_temperature;BME280_humidity;BME280_pressure;Samples;Min_cycle;Max_cycle;Signal;HPM_P1;HPM_P2
2021/06/16 00:00:22;;;;;;;6.03;3.10;;;;;;;16.81;60.44;100640.66;5042462;28;20505;-70
2021/06/16 00:02:49;;;;;;;4.57;2.67;;;;;;;16.76;60.37;100648.41;5044251;28;20477;-70
2021/06/16 00:05:19;;;;;;;6.73;3.00;;;;;;;16.71;60.94;100648.09;5043530;28;20472;-70
2021/06/16 00:07:46;;;;;;;4.77;2.83;;;;;;;16.71;60.68;100642.69;5043263;28;20478;-70
2021/06/16 00:10:16;;;;;;;4.23;2.70;;;;;;;16.64;60.71;100649.78;5042744;28;20468;-69
2021/06/16 00:12:42;;;;;;;5.53;3.00;;;;;;;16.66;60.53;100650.44;5042805;28;20478;-70
2021/06/16 00:15:12;;;;;;;5.60;2.90;;;;;;;16.69;60.59;100645.56;5042898;28;20489;-70
2021/06/16 00:17:39;;;;;;;3.37;2.57;;;;;;;16.85;60.58;100647.41;5043451;28;20446;-70
2021/06/16 00:20:06;;;;;;;3.90;3.10;;;;;;;16.65;60.75;100646.09;5043465;28;20514;-70
2021/06/16 00:22:33;;;;;;;8.13;3.40;;;;;;;16.59;61.18;100644.06;5043711;28;20469;-70
2021/06/16 00:25:00;;;;;;;6.80;3.03;;;;;;;16.48;61.96;100640.69;5042296;28;20464;-71
2021/06/16 00:27:28;;;;;;;5.83;3.20;;;;;;;16.46;62.09;100633.78;5043245;28;20560;-70
2021/06/16 00:29:54;;;;;;;5.50;2.90;;;;;;;16.38;62.28;100631.91;5043788;28;20708;-71
2021/06/16 00:32:21;;;;;;;6.47;2.83;;;;;;;16.29;62.45;100628.38;5042944;28;20524;-71
2021/06/16 00:34:47;;;;;;;5.90;3.07;;;;;;;16.24;63.12;100643.38;5042319;28;20493;-71
2021/06/16 00:37:14;;;;;;;6.30;3.43;;;;;;;16.26;62.88;100631.41;5042720;28;21064;-71
2021/06/16 00:39:41;;;;;;;4.97;3.53;;;;;;;16.25;62.95;100629.72;5043117;28;20518;-71
2021/06/16 00:42:08;;;;;;;3.60;2.53;;;;;;;16.23;62.98;100629.06;5042237;28;20513;-72
2021/06/16 00:44:36;;;;;;;6.10;3.00;;;;;;;16.17;63.21;100627.84;5042683;28;20457;-72
2021/06/16 00:47:03;;;;;;;6.67;3.97;;;;;;;16.12;63.09;100621.28;5042124;28;20536;-71
2021/06/16 00:49:30;;;;;;;8.30;4.00;;;;;;;15.98;63.56;100625.50;5043085;28;20485;-72
2021/06/16 00:51:57;;;;;;;6.80;3.87;;;;;;;16.07;63.06;100623.66;5042177;28;20548;-71
2021/06/16 00:54:23;;;;;;;7.47;3.00;;;;;;;16.04;62.98;100627.53;5042722;28;20527;-71
2021/06/16 00:56:50;;;;;;;6.33;3.27;;;;;;;16.07;63.18;100631.75;5042355;28;20475;-72
2021/06/16 00:59:17;;;;;;;7.13;3.23;;;;;;;16.14;62.96;100632.75;5043206;28;20508;-72
2021/06/16 01:01:48;;;;;;;6.53;4.40;;;;;;;15.98;63.67;100625.50;5041619;28;20508;-72
2021/06/16 01:04:16;;;;;;;7.30;3.03;;;;;;;15.91;63.75;100621.78;5023198;28;20458;-71
2021/06/16 01:06:44;;;;;;;5.33;3.80;;;;;;;15.99;64.13;100622.63;5041337;28;20495;-71
2021/06/16 01:09:13;;;;;;;4.23;3.10;;;;;;;16.05;63.93;100625.69;5042726;28;20556;-71
2021/06/16 01:11:51;;;;;;;9.50;3.10;;;;;;;16.05;63.74;100628.38;5042407;28;20501;-72
2021/06/16 01:14:21;;;;;;;7.50;3.80;;;;;;;16.12;63.24;100632.09;5042505;28;20576;-71
2021/06/16 01:16:52;;;;;;;8.53;3.67;;;;;;;16.09;63.08;100627.88;5042188;28;20557;-71
2021/06/16 01:19:33;;;;;;;4.73;2.97;;;;;;;16.04;63.47;100624.84;5040699;28;20472;-72
2021/06/16 01:22:04;;;;;;;5.63;3.33;;;;;;;15.95;63.48;100623.13;5042187;28;20488;-72
2021/06/16 01:24:31;;;;;;;4.53;2.83;;;;;;;15.93;63.30;100622.44;5041007;28;20548;-70
2021/06/16 01:27:00;;;;;;;6.80;3.27;;;;;;;15.90;63.32;100628.16;5041359;28;20592;-71
2021/06/16 01:29:29;;;;;;;4.13;2.90;;;;;;;15.87;63.41;100620.44;5042808;28;20838;-72
2021/06/16 01:31:57;;;;;;;8.23;3.57;;;;;;;15.77;63.73;100628.66;5040856;28;20572;-71
2021/06/16 01:34:25;;;;;;;8.67;3.80;;;;;;;15.78;64.06;100624.97;5041453;28;20932;-71
2021/06/16 01:36:53;;;;;;;5.20;2.93;;;;;;;15.77;63.73;100626.81;5041569;28;20501;-72
2021/06/16 01:39:22;;;;;;;7.13;4.03;;;;;;;15.75;64.49;100618.03;5042106;28;20480;-71
2021/06/16 01:41:52;;;;;;;7.80;3.60;;;;;;;15.82;64.11;100620.94;5040949;28;20511;-72
2021/06/16 01:44:21;;;;;;;10.13;3.40;;;;;;;15.72;64.19;100615.63;5041245;28;20967;-72
2021/06/16 01:46:50;;;;;;;8.00;3.40;;;;;;;15.69;64.35;100605.19;5037354;28;20845;-72
2021/06/16 01:49:17;;;;;;;3.60;3.30;;;;;;;15.63;64.48;100603.16;5040243;28;20542;-73
2021/06/16 01:51:44;;;;;;;9.43;4.13;;;;;;;15.64;64.23;100596.78;5041449;28;20552;-72
2021/06/16 01:54:11;;;;;;;5.50;3.50;;;;;;;15.51;64.81;100596.41;5041873;28;20526;-73
2021/06/16 01:56:39;;;;;;;5.17;3.40;;;;;;;15.43;65.06;100587.28;5040500;28;20511;-72
2021/06/16 01:59:07;;;;;;;7.20;3.20;;;;;;;15.56;64.52;100594.88;5042914;28;20472;-72
2021/06/16 02:01:35;;;;;;;9.40;3.30;;;;;;;15.60;64.43;100590.84;5041551;28;20473;-71
2021/06/16 02:04:02;;;;;;;9.23;3.60;;;;;;;15.56;64.70;100591.34;5042252;28;20539;-72
2021/06/16 02:06:31;;;;;;;7.10;3.63;;;;;;;15.41;65.22;100593.81;5041501;28;20578;-71
2021/06/16 02:09:00;;;;;;;4.73;3.30;;;;;;;15.55;64.95;100586.97;5042441;28;20474;-72
2021/06/16 02:11:27;;;;;;;6.77;3.47;;;;;;;15.61;64.42;100592.53;5041338;28;20470;-68
2021/06/16 02:13:56;;;;;;;6.33;3.40;;;;;;;15.58;64.68;100589.34;5042325;28;20517;-72
2021/06/16 02:16:26;;;;;;;6.63;4.20;;;;;;;15.37;65.24;100587.94;5041443;28;20508;-71
2021/06/16 02:18:57;;;;;;;7.50;4.03;;;;;;;15.31;65.88;100593.13;5041539;28;20939;-72
2021/06/16 02:21:25;;;;;;;11.10;3.90;;;;;;;15.28;66.02;100591.63;5041540;28;20551;-72
2021/06/16 02:23:52;;;;;;;6.10;3.73;;;;;;;15.32;66.26;100595.66;5041727;28;20467;-72
2021/06/16 02:26:21;;;;;;;4.10;3.57;;;;;;;15.39;65.90;100596.69;5041526;28;20472;-72
2021/06/16 02:28:47;;;;;;;6.87;3.50;;;;;;;15.37;65.74;100600.56;5041860;28;20451;-72
2021/06/16 02:31:14;;;;;;;7.93;4.17;;;;;;;15.34;65.79;100595.50;5030412;28;20871;-72
2021/06/16 02:33:41;;;;;;;4.07;3.40;;;;;;;15.32;66.07;100594.81;5041376;28;20992;-71
2021/06/16 02:36:10;;;;;;;5.87;3.60;;;;;;;15.22;66.59;100589.56;5043221;28;20490;-72
2021/06/16 02:38:37;;;;;;;6.43;3.93;;;;;;;15.31;66.26;100585.91;5045596;28;20540;-72
2021/06/16 02:41:12;;;;;;;6.00;3.87;;;;;;;15.20;66.51;100578.09;5044730;28;20615;-72
2021/06/16 02:43:39;;;;;;;4.60;3.23;;;;;;;15.06;66.67;100577.72;5045530;28;20497;-72
2021/06/16 02:46:06;;;;;;;10.60;3.67;;;;;;;15.22;66.50;100576.09;5045536;28;20499;-72
2021/06/16 02:48:34;;;;;;;4.77;3.50;;;;;;;15.14;66.63;100570.69;5044931;28;20498;-71
2021/06/16 02:51:01;;;;;;;10.77;4.30;;;;;;;15.14;66.58;100562.63;5039917;28;20527;-72
2021/06/16 02:53:29;;;;;;;9.07;4.13;;;;;;;15.33;65.92;100569.53;5045413;28;20471;-71
2021/06/16 02:56:01;;;;;;;4.70;3.53;;;;;;;15.40;65.68;100563.34;5044421;28;20488;-71
2021/06/16 02:58:28;;;;;;;8.00;3.87;;;;;;;15.25;65.60;100560.44;5045524;28;20477;-72
2021/06/16 03:00:58;;;;;;;7.67;3.47;;;;;;;15.16;66.15;100560.59;5045116;28;20479;-71
2021/06/16 03:03:25;;;;;;;3.90;3.33;;;;;;;15.34;65.48;100564.00;5045086;28;20501;-71
2021/06/16 03:05:52;;;;;;;8.00;3.90;;;;;;;15.37;65.45;100574.47;5024922;28;20480;-72
2021/06/16 03:08:21;;;;;;;8.03;4.23;;;;;;;15.30;65.86;100567.22;5042274;28;20450;-71
2021/06/16 03:10:50;;;;;;;9.13;4.20;;;;;;;15.22;66.09;100562.63;5044671;28;20933;-72
2021/06/16 03:13:17;;;;;;;10.00;3.40;;;;;;;15.32;65.80;100565.19;5045232;28;20486;-72
2021/06/16 03:15:46;;;;;;;7.17;3.70;;;;;;;15.37;65.71;100568.22;5044824;28;20505;-71
2021/06/16 03:18:13;;;;;;;5.77;3.73;;;;;;;15.35;65.46;100575.66;5044393;28;20461;-71
2021/06/16 03:20:40;;;;;;;5.87;4.03;;;;;;;15.39;65.37;100571.59;5045109;28;20594;-71
2021/06/16 03:23:08;;;;;;;7.43;3.90;;;;;;;15.75;64.43;100587.56;5044898;28;20442;-71
2021/06/16 03:25:35;;;;;;;13.37;4.60;;;;;;;16.27;62.48;100581.84;5044114;28;20467;-70
2021/06/16 03:28:04;;;;;;;4.70;4.10;;;;;;;17.06;59.66;100565.81;5044858;28;20538;-72
2021/06/16 03:30:32;;;;;;;6.13;3.60;;;;;;;17.63;58.09;100567.38;5044487;28;20473;-71
2021/06/16 03:32:59;;;;;;;5.40;3.20;;;;;;;18.03;56.34;100561.88;5044735;28;20441;-72
2021/06/16 03:35:26;;;;;;;5.00;3.30;;;;;;;18.32;55.01;100571.94;5043936;28;20546;-71
2021/06/16 03:37:53;;;;;;;5.97;3.60;;;;;;;19.00;53.14;100566.50;5044263;28;20446;-72
2021/06/16 03:40:21;;;;;;;7.40;3.87;;;;;;;19.65;51.76;100562.06;5043995;28;20457;-71
2021/06/16 03:42:49;;;;;;;8.80;2.73;;;;;;;20.26;50.01;100571.66;5044367;28;21010;-71
2021/06/16 03:45:18;;;;;;;7.93;3.70;;;;;;;20.76;48.13;100574.31;5043087;28;20965;-72
2021/06/16 03:47:46;;;;;;;7.40;3.27;;;;;;;21.15;47.07;100567.41;5042195;28;20485;-71
2021/06/16 03:50:21;;;;;;;4.37;2.80;;;;;;;21.84;45.32;100566.41;5043234;28;20504;-72
2021/06/16 03:52:47;;;;;;;3.10;2.20;;;;;;;22.35;44.04;100559.53;5044259;28;20462;-71
2021/06/16 03:55:16;;;;;;;10.20;3.73;;;;;;;22.93;42.60;100558.78;5043092;28;20554;-72
2021/06/16 03:57:44;;;;;;;6.90;2.97;;;;;;;22.55;43.55;100562.22;5044056;28;20462;-72
2021/06/16 04:00:12;;;;;;;4.47;2.60;;;;;;;22.42;43.80;100562.25;5043420;28;20434;-71
2021/06/16 04:02:40;;;;;;;6.97;3.10;;;;;;;22.59;43.88;100559.94;5043226;28;20509;-71
2021/06/16 04:05:09;;;;;;;6.67;2.50;;;;;;;23.53;41.57;100560.47;5043223;28;20542;-71
2021/06/16 04:07:36;;;;;;;7.73;3.47;;;;;;;24.05;40.33;100558.44;5044541;28;20492;-70
2021/06/16 04:10:06;;;;;;;5.97;2.40;;;;;;;24.65;39.17;100555.22;5042796;28;20457;-69
2021/06/16 04:12:32;;;;;;;5.60;2.40;;;;;;;23.99;40.55;100562.91;5038817;28;20514;-70
2021/06/16 04:14:59;;;;;;;3.47;2.53;;;;;;;24.23;39.98;100550.31;5043176;28;20654;-70
2021/06/16 04:17:26;;;;;;;3.70;2.40;;;;;;;25.19;37.09;100539.84;5043013;28;20601;-73
2021/06/16 04:19:54;;;;;;;8.50;2.90;;;;;;;24.51;38.61;100549.03;5043983;28;20478;-71
2021/06/16 04:22:21;;;;;;;3.90;2.10;;;;;;;24.89;37.51;100530.75;5043756;28;20730;-72
2021/06/16 04:24:47;;;;;;;5.13;2.90;;;;;;;25.40;36.59;100545.06;5041050;28;20517;-72
2021/06/16 04:27:14;;;;;;;7.40;2.20;;;;;;;26.33;34.82;100543.66;5040431;28;20516;-72
2021/06/16 04:29:41;;;;;;;4.87;2.40;;;;;;;27.12;33.25;100545.16;5036602;28;20462;-71
2021/06/16 04:32:09;;;;;;;9.27;2.63;;;;;;;27.52;32.47;100536.88;5042247;28;20502;-72
2021/06/16 04:34:36;;;;;;;9.80;3.10;;;;;;;25.65;37.08;100532.06;5042723;28;20849;-72
2021/06/16 04:37:05;;;;;;;8.43;3.90;;;;;;;25.22;37.55;100530.31;5041873;28;20919;-73
2021/06/16 04:39:32;;;;;;;5.10;2.60;;;;;;;26.25;34.78;100527.59;5042678;28;20454;-72
2021/06/16 04:41:59;;;;;;;12.30;3.20;;;;;;;26.17;35.07;100530.66;5043194;28;20498;-73
2021/06/16 04:44:25;;;;;;;6.10;2.70;;;;;;;26.54;34.80;100531.25;5041687;28;20474;-73
2021/06/16 04:46:52;;;;;;;6.40;2.20;;;;;;;26.87;34.33;100529.78;5042173;28;20493;-74
2021/06/16 04:49:19;;;;;;;4.47;2.40;;;;;;;27.32;33.42;100529.09;5042247;28;20502;-74
2021/06/16 04:51:45;;;;;;;5.50;2.30;;;;;;;26.86;33.35;100525.41;5041799;28;20821;-74
2021/06/16 04:54:13;;;;;;;5.40;2.90;;;;;;;26.69;34.17;100530.78;5042042;28;20489;-73
2021/06/16 04:56:40;;;;;;;5.93;2.50;;;;;;;26.82;34.10;100529.69;5041491;28;20505;-74
2021/06/16 04:59:07;;;;;;;8.23;2.43;;;;;;;27.97;32.14;100527.81;5040863;28;20481;-75
2021/06/16 05:01:35;;;;;;;4.83;2.50;;;;;;;27.71;31.88;100529.28;5041516;28;20488;-74
2021/06/16 05:04:02;;;;;;;3.07;1.97;;;;;;;27.02;32.65;100524.63;5042019;28;20454;-75
2021/06/16 05:06:29;;;;;;;5.40;2.33;;;;;;;27.23;32.73;100527.78;5056099;28;20473;-76
2021/06/16 05:08:55;;;;;;;6.00;2.80;;;;;;;27.14;32.72;100521.03;5042050;28;20526;-76
2021/06/16 05:11:23;;;;;;;7.60;2.80;;;;;;;26.73;33.28;100525.66;5041836;28;20481;-73
2021/06/16 05:13:50;;;;;;;5.50;2.70;;;;;;;25.88;34.52;100525.84;5040831;28;20466;-73
2021/06/16 05:16:17;;;;;;;5.50;2.50;;;;;;;25.41;36.18;100525.69;5041598;28;20549;-75
2021/06/16 05:18:45;;;;;;;7.30;2.80;;;;;;;25.72;35.33;100519.13;5054014;28;20489;-72
2021/06/16 05:21:12;;;;;;;6.97;2.90;;;;;;;26.91;33.82;100520.03;5041097;28;20491;-73
2021/06/16 05:23:39;;;;;;;6.90;2.90;;;;;;;28.04;31.92;100527.66;5038922;28;20497;-72
2021/06/16 05:26:06;;;;;;;5.33;2.53;;;;;;;28.53;30.86;100522.34;5035736;28;20548;-73
2021/06/16 05:28:34;;;;;;;6.40;2.40;;;;;;;29.08;30.15;100519.78;5041623;28;20541;-73
2021/06/16 05:31:00;;;;;;;7.10;2.83;;;;;;;28.51;31.11;100515.44;5040702;28;20504;-72
2021/06/16 05:33:27;;;;;;;4.47;2.37;;;;;;;28.75;30.38;100518.84;5041636;28;20473;-73
2021/06/16 05:35:54;;;;;;;5.50;2.17;;;;;;;27.62;32.53;100519.78;5040500;28;20470;-72
2021/06/16 05:38:21;;;;;;;3.70;2.80;;;;;;;28.18;31.61;100517.97;5040774;28;20554;-71
2021/06/16 05:40:48;;;;;;;4.43;2.10;;;;;;;28.42;31.72;100514.19;5037318;28;20490;-72
2021/06/16 05:43:15;;;;;;;6.40;2.97;;;;;;;29.33;29.80;100505.50;5042698;28;20499;-72
2021/06/16 05:45:43;;;;;;;4.90;2.50;;;;;;;28.74;30.90;100504.22;5037035;28;20979;-69
2021/06/16 05:48:09;;;;;;;4.57;2.43;;;;;;;28.79;30.84;100508.97;5039900;28;20496;-71
2021/06/16 05:50:36;;;;;;;5.40;2.63;;;;;;;29.41;29.77;100498.69;5041078;28;20489;-71
2021/06/16 05:53:03;;;;;;;5.43;2.50;;;;;;;28.49;31.23;100504.69;5041208;28;20470;-71
2021/06/16 05:55:30;;;;;;;7.13;2.87;;;;;;;27.83;32.08;100498.97;5039874;28;20509;-71
2021/06/16 05:57:57;;;;;;;5.20;2.70;;;;;;;29.17;30.33;100493.50;5042158;28;20454;-71
2021/06/16 06:00:25;;;;;;;5.13;2.60;;;;;;;29.46;29.65;100499.56;5041139;28;20456;-70
2021/06/16 06:02:53;;;;;;;6.53;3.20;;;;;;;29.81;29.55;100494.69;5041262;28;20928;-70
2021/06/16 06:05:20;;;;;;;4.87;2.33;;;;;;;29.17;29.83;100492.66;5040502;28;20474;-71
2021/06/16 06:07:46;;;;;;;6.70;2.57;;;;;;;29.06;30.15;100495.28;5041536;28;20431;-71
2021/06/16 06:10:13;;;;;;;9.77;3.87;;;;;;;28.24;31.41;100496.88;5038645;28;20485;-71
2021/06/16 06:12:40;;;;;;;7.80;2.80;;;;;;;28.35;31.73;100486.91;5040780;28;20454;-71
2021/06/16 06:15:07;;;;;;;6.37;3.10;;;;;;;29.52;30.14;100494.13;5040579;28;20525;-71
2021/06/16 06:17:34;;;;;;;4.70;2.33;;;;;;;28.78;30.91;100496.28;5039394;28;20439;-71
2021/06/16 06:20:02;;;;;;;7.30;2.90;;;;;;;30.17;29.03;100486.66;5041272;28;20453;-70
2021/06/16 06:22:28;;;;;;;9.23;3.47;;;;;;;29.71;29.92;100481.63;5041085;28;20502;-71
2021/06/16 06:24:55;;;;;;;7.93;2.70;;;;;;;30.76;28.27;100480.13;5026412;28;20546;-71
2021/06/16 06:27:22;;;;;;;5.20;2.60;;;;;;;30.08;29.27;100472.53;5021196;28;20562;-71
2021/06/16 06:29:48;;;;;;;6.80;2.73;;;;;;;30.74;27.99;100477.63;5021471;28;20457;-71
2021/06/16 06:32:15;;;;;;;6.87;2.87;;;;;;;30.68;28.23;100473.19;5033204;28;20545;-71
2021/06/16 06:34:41;;;;;;;6.77;2.80;;;;;;;32.06;25.97;100472.63;5039185;28;20489;-71
2021/06/16 06:37:09;;;;;;;5.87;2.77;;;;;;;30.87;28.01;100465.25;5038509;28;20508;-71
2021/06/16 06:39:36;;;;;;;5.70;2.63;;;;;;;30.59;28.11;100472.88;5039547;28;20529;-71
2021/06/16 06:42:03;;;;;;;6.37;2.77;;;;;;;32.12;25.86;100473.47;5040268;28;20569;-71
2021/06/16 06:44:30;;;;;;;7.73;2.87;;;;;;;31.80;26.49;100460.75;5040481;28;20546;-71
2021/06/16 06:46:56;;;;;;;8.10;3.30;;;;;;;32.55;25.87;100464.75;5039492;28;20473;-72
2021/06/16 06:49:23;;;;;;;5.27;2.67;;;;;;;30.34;28.98;100465.25;5040564;28;21104;-72
2021/06/16 06:51:50;;;;;;;5.27;2.90;;;;;;;31.67;26.97;100466.84;5040924;28;20739;-71
2021/06/16 06:54:18;;;;;;;6.07;2.77;;;;;;;29.99;29.39;100458.44;5039406;28;20485;-71
2021/06/16 06:56:44;;;;;;;7.07;3.10;;;;;;;29.29;30.26;100463.06;5039789;28;20581;-71
2021/06/16 06:59:11;;;;;;;4.67;2.40;;;;;;;30.73;28.50;100458.59;5041157;28;20514;-71
2021/06/16 07:01:37;;;;;;;7.30;2.73;;;;;;;31.82;27.04;100453.03;5039724;28;20485;-71
2021/06/16 07:04:04;;;;;;;5.83;2.47;;;;;;;31.67;27.04;100453.03;5040758;28;20434;-71
2021/06/16 07:06:32;;;;;;;7.37;3.40;;;;;;;32.39;26.41;100448.22;5040234;28;20828;-71
2021/06/16 07:08:59;;;;;;;5.20;2.63;;;;;;;32.68;25.62;100442.06;5038643;28;20449;-71
2021/06/16 07:11:27;;;;;;;7.20;3.40;;;;;;;32.17;26.34;100443.03;5039744;28;20976;-71
2021/06/16 07:13:54;;;;;;;6.30;3.23;;;;;;;32.58;26.06;100453.13;5041125;28;20458;-71
2021/06/16 07:16:20;;;;;;;6.93;3.67;;;;;;;31.75;26.96;100437.81;5039114;28;20859;-70
2021/06/16 07:18:48;;;;;;;5.17;3.20;;;;;;;32.24;26.46;100439.97;5040269;28;20466;-70
2021/06/16 07:21:15;;;;;;;6.33;3.43;;;;;;;32.82;25.38;100439.50;5039048;28;20663;-71
2021/06/16 07:23:41;;;;;;;7.40;2.70;;;;;;;33.36;24.40;100441.38;5039439;28;20455;-71
2021/06/16 07:26:08;;;;;;;6.00;3.03;;;;;;;31.90;26.74;100435.84;5043380;28;20867;-72
2021/06/16 07:28:36;;;;;;;5.80;2.80;;;;;;;32.93;25.85;100430.03;5044494;28;20437;-71
2021/06/16 07:31:03;;;;;;;9.93;2.83;;;;;;;33.15;25.16;100424.09;5042679;28;20728;-71
2021/06/16 07:33:31;;;;;;;7.30;2.90;;;;;;;31.82;27.19;100428.13;5044307;28;20519;-71
2021/06/16 07:35:57;;;;;;;5.90;3.30;;;;;;;34.04;24.79;100420.28;5043387;28;20509;-71
2021/06/16 07:38:24;;;;;;;4.30;2.60;;;;;;;34.00;24.65;100410.91;5043392;28;20451;-70
2021/06/16 07:40:51;;;;;;;5.10;2.53;;;;;;;34.85;23.27;100425.19;5043948;28;20470;-72
2021/06/16 07:43:17;;;;;;;4.50;2.50;;;;;;;32.93;25.40;100416.19;5043702;28;20489;-72
2021/06/16 07:45:46;;;;;;;5.30;2.70;;;;;;;32.60;25.82;100417.72;5028976;28;20536;-70
2021/06/16 07:48:12;;;;;;;7.53;2.80;;;;;;;31.90;27.22;100419.25;5040626;28;20552;-71
2021/06/16 07:50:40;;;;;;;5.80;3.10;;;;;;;30.03;30.42;100407.19;5042560;28;20473;-70
2021/06/16 07:53:07;;;;;;;7.83;3.00;;;;;;;32.89;26.90;100420.63;5043524;28;20446;-71
2021/06/16 07:55:35;;;;;;;5.87;3.07;;;;;;;33.06;26.38;100406.41;5042662;28;20486;-72
2021/06/16 07:58:02;;;;;;;5.27;2.37;;;;;;;34.42;24.49;100411.28;5042331;28;20512;-72
2021/06/16 09:49:55;;;;;;;7.93;4.87;;;;;;;33.51;30.40;100329.56;5132752;27;20532;-70
2021/06/16 09:52:32;;;;;;;6.40;5.40;;;;;;;32.18;32.58;100336.78;5097208;28;20467;-72
2021/06/16 09:54:59;;;;;;;5.43;4.70;;;;;;;33.63;29.66;100328.34;5094197;28;20459;-71
2021/06/16 09:57:26;;;;;;;7.73;4.53;;;;;;;33.90;29.83;100327.78;5075841;28;20527;-71
2021/06/16 09:59:59;;;;;;;4.67;4.27;;;;;;;34.43;28.69;100332.44;5074701;28;20453;-71
2021/06/16 10:02:29;;;;;;;6.60;4.73;;;;;;;34.37;28.70;100328.91;5075197;28;20464;-71
2021/06/16 10:04:58;;;;;;;7.07;5.23;;;;;;;33.66;30.36;100322.22;5075942;28;20504;-71
2021/06/16 10:07:26;;;;;;;6.83;5.10;;;;;;;34.70;28.39;100327.09;5075797;28;20480;-71
2021/06/16 10:09:55;;;;;;;5.90;4.83;;;;;;;35.07;27.82;100321.78;5076498;28;20846;-71
2021/06/16 10:12:24;;;;;;;5.40;4.90;;;;;;;33.77;29.90;100312.69;5075379;28;20534;-70
2021/06/16 10:14:51;;;;;;;6.93;5.33;;;;;;;33.35;30.78;100317.81;5077379;28;20443;-71
2021/06/16 10:17:17;;;;;;;8.10;4.70;;;;;;;33.30;31.44;100315.09;5076124;28;20472;-70
2021/06/16 10:19:46;;;;;;;5.33;4.83;;;;;;;33.19;31.31;100319.91;5076346;28;20429;-70
2021/06/16 10:22:14;;;;;;;6.40;5.20;;;;;;;33.17;31.80;100311.03;5076281;28;20938;-70
2021/06/16 10:24:41;;;;;;;6.20;5.33;;;;;;;33.25;31.36;100303.22;5076215;28;20445;-71
2021/06/16 10:27:11;;;;;;;6.97;6.20;;;;;;;32.78;31.81;100303.56;5075085;28;21080;-70
2021/06/16 10:29:41;;;;;;;9.63;6.23;;;;;;;31.99;33.35;100308.09;5076969;28;20425;-70
2021/06/16 10:32:10;;;;;;;7.43;5.60;;;;;;;32.69;33.13;100301.69;5076392;28;20477;-72
2021/06/16 10:34:56;;;;;;;7.30;4.70;;;;;;;32.94;33.19;100303.44;5075926;28;20417;-70
2021/06/16 10:37:27;;;;;;;8.23;5.33;;;;;;;33.65;31.64;100296.44;5074843;28;20526;-71
2021/06/16 10:40:33;;;;;;;6.23;5.07;;;;;;;33.56;31.75;100285.16;5075179;28;20441;-70
2021/06/16 10:43:24;;;;;;;8.10;5.77;;;;;;;33.21;32.45;100291.88;5074812;28;20460;-71
2021/06/16 10:45:53;;;;;;;6.63;4.90;;;;;;;33.76;31.52;100277.75;5075528;28;20461;-71
2021/06/16 10:48:20;;;;;;;7.80;5.00;;;;;;;33.57;31.36;100283.22;5084028;28;20488;-71
2021/06/16 10:51:04;;;;;;;6.40;5.63;;;;;;;32.03;33.97;100287.88;5082040;28;20476;-72
2021/06/16 10:53:32;;;;;;;6.27;5.60;;;;;;;31.89;33.38;100278.53;5082796;28;20452;-72
2021/06/16 10:56:08;;;;;;;7.30;5.00;;;;;;;32.51;32.35;100272.72;5081170;28;20544;-71
2021/06/16 10:58:44;;;;;;;7.70;5.90;;;;;;;31.99;34.42;100270.19;5082547;28;20475;-71
2021/06/16 11:01:12;;;;;;;8.40;4.97;;;;;;;31.20;35.27;100271.75;5082183;28;20479;-71
2021/06/16 11:04:04;;;;;;;6.47;5.87;;;;;;;31.38;35.08;100271.19;5075438;28;20479;-71
2021/06/16 11:06:40;;;;;;;7.70;5.70;;;;;;;32.85;32.68;100270.00;5062226;28;20548;-72
2021/06/16 11:09:09;;;;;;;6.53;5.13;;;;;;;33.33;31.44;100269.31;5074177;28;20531;-71
2021/06/16 11:12:08;;;;;;;5.80;5.20;;;;;;;33.55;32.25;100257.75;5079929;28;20519;-71
2021/06/16 11:14:47;;;;;;;7.03;5.97;;;;;;;32.76;32.31;100260.66;5082838;28;20456;-72
2021/06/16 11:17:43;;;;;;;8.43;4.97;;;;;;;33.47;32.30;100259.22;5081799;28;20482;-72
2021/06/16 11:20:14;;;;;;;7.80;7.00;;;;;;;31.86;34.63;100257.81;5077294;28;20456;-71
2021/06/16 11:22:48;;;;;;;7.70;5.70;;;;;;;33.46;31.49;100252.00;5082364;28;20490;-71
2021/06/16 11:25:35;;;;;;;6.00;5.37;;;;;;;32.99;32.48;100248.84;5080858;28;20456;-70
2021/06/16 11:28:10;;;;;;;8.80;6.13;;;;;;;32.74;32.68;100243.50;5082978;28;20431;-72
2021/06/16 11:30:42;;;;;;;8.20;6.10;;;;;;;33.64;31.93;100242.09;5081297;28;20525;-71
2021/06/16 11:33:44;;;;;;;8.07;5.70;;;;;;;32.98;32.79;100235.28;5081251;28;20480;-72
2021/06/16 11:36:13;;;;;;;10.93;6.90;;;;;;;32.83;32.69;100233.50;5081062;28;20570;-69
2021/06/16 11:38:40;;;;;;;8.90;6.13;;;;;;;32.76;33.65;100227.44;5082178;28;20502;-71
2021/06/16 11:41:17;;;;;;;7.47;6.53;;;;;;;31.78;36.33;100225.22;5079406;28;20986;-72
2021/06/16 11:43:45;;;;;;;8.20;5.90;;;;;;;32.30;34.28;100219.47;5081235;28;20463;-71
2021/06/16 11:46:15;;;;;;;7.27;6.57;;;;;;;32.17;34.78;100218.13;5081160;28;20464;-71
2021/06/16 11:48:43;;;;;;;7.73;6.50;;;;;;;32.47;35.26;100217.94;5080232;28;20484;-71
2021/06/16 11:51:10;;;;;;;7.40;6.57;;;;;;;33.02;32.47;100216.97;5081119;28;20476;-71
2021/06/16 11:53:38;;;;;;;10.30;7.07;;;;;;;32.27;34.72;100218.94;5081315;28;20487;-71
2021/06/16 11:56:06;;;;;;;8.40;7.10;;;;;;;32.03;34.85;100220.66;5079877;28;20554;-71
2021/06/16 11:58:36;;;;;;;8.20;6.47;;;;;;;32.49;34.08;100206.59;5081032;28;20484;-71
2021/06/16 12:01:06;;;;;;;191.67;31.80;;;;;;;32.32;34.75;100206.16;5076564;28;20511;-71
2021/06/16 12:03:33;;;;;;;7.73;6.93;;;;;;;31.48;36.43;100215.91;5079100;28;20444;-70
2021/06/16 12:06:00;;;;;;;8.00;7.20;;;;;;;31.81;34.92;100205.31;5080783;28;20495;-70
2021/06/16 12:08:27;;;;;;;8.27;6.77;;;;;;;31.91;34.87;100208.03;5080970;28;20449;-71
2021/06/16 12:10:54;;;;;;;7.60;6.90;;;;;;;30.96;37.17;100206.91;5078467;28;20480;-71
2021/06/16 12:13:21;;;;;;;8.30;7.43;;;;;;;31.38;36.73;100202.13;5081030;28;20460;-71
2021/06/16 12:15:49;;;;;;;7.00;6.40;;;;;;;31.55;36.01;100187.19;5076197;28;20925;-70
2021/06/16 12:18:17;;;;;;;8.23;7.37;;;;;;;31.01;36.23;100186.75;5080247;28;20488;-70
2021/06/16 12:20:45;;;;;;;8.20;7.23;;;;;;;30.95;36.71;100188.69;5079250;28;20823;-70
2021/06/16 12:23:21;;;;;;;9.50;6.77;;;;;;;31.28;36.73;100182.81;5074459;28;20525;-71
2021/06/16 12:25:48;;;;;;;7.80;7.10;;;;;;;31.39;36.24;100170.63;5069280;28;20471;-70
2021/06/16 12:28:16;;;;;;;8.03;7.17;;;;;;;31.51;36.72;100173.13;5081785;28;20504;-71
2021/06/16 12:30:44;;;;;;;7.63;7.00;;;;;;;31.29;37.21;100174.25;5079464;28;20467;-71
2021/06/16 12:33:22;;;;;;;8.47;7.33;;;;;;;31.45;37.51;100177.78;5079763;28;20441;-71
2021/06/16 12:35:56;;;;;;;9.83;7.00;;;;;;;31.51;36.54;100165.66;5072307;28;20483;-71
2021/06/16 12:38:43;;;;;;;7.80;7.10;;;;;;;31.34;36.69;100156.84;5080123;28;20484;-71
2021/06/16 12:41:30;;;;;;;8.47;7.77;;;;;;;31.11;37.23;100166.53;5077648;28;20483;-71
2021/06/16 12:44:32;;;;;;;8.60;6.90;;;;;;;31.37;36.55;100147.16;5075128;28;20532;-71
2021/06/16 12:47:00;;;;;;;8.90;7.03;;;;;;;31.01;37.62;100144.50;4996425;28;20502;-71
2021/06/16 12:49:31;;;;;;;7.50;6.90;;;;;;;32.02;37.37;100152.66;5015359;28;21000;-71
2021/06/16 12:52:02;;;;;;;9.10;6.87;;;;;;;32.19;35.49;100146.78;5017094;28;20475;-70
2021/06/16 12:54:31;;;;;;;7.33;6.63;;;;;;;31.56;36.10;100141.84;5016093;28;20459;-71
2021/06/16 12:57:07;;;;;;;10.70;7.63;;;;;;;31.40;36.39;100139.13;5008756;28;20502;-71
2021/06/16 12:59:35;;;;;;;7.60;6.90;;;;;;;31.41;36.21;100137.19;5029262;28;20512;-71
2021/06/16 13:02:02;;;;;;;7.93;6.80;;;;;;;31.26;34.95;100140.84;5016236;28;20486;-70
2021/06/16 13:04:52;;;;;;;7.50;6.60;;;;;;;31.63;35.94;100142.38;5008596;28;20564;-71
2021/06/16 13:07:19;;;;;;;7.60;6.90;;;;;;;30.48;38.97;100142.84;5013449;28;20470;-71
2021/06/16 13:10:04;;;;;;;7.57;6.87;;;;;;;31.44;36.09;100133.84;5011965;28;20514;-71
2021/06/16 13:12:31;;;;;;;7.37;6.70;;;;;;;30.98;37.10;100135.66;5005357;28;20491;-70
2021/06/16 13:14:59;;;;;;;8.63;7.57;;;;;;;31.07;37.00;100135.91;5016587;28;20968;-71
2021/06/16 13:17:26;;;;;;;8.53;7.33;;;;;;;31.22;38.09;100129.53;5016432;28;20593;-70
2021/06/16 13:19:59;;;;;;;8.23;7.53;;;;;;;30.79;36.55;100132.63;5017525;28;20571;-70
2021/06/16 13:22:33;;;;;;;6.97;6.27;;;;;;;31.41;36.71;100124.22;5079042;28;20521;-70